Bretagne — FNBR — position and weather

sailwx.info

Track history (hours):
 
Tides and Currents Weather Stations Pressure Air Temp Water Temp Dewpoint Dewpoint Depression Visibility Wind Speed Wind Dir Waves Ship Positions

Bretagne

Operator: Brittany Ferries

Last reported at 2016-Jul-27 07:21 UTC. Time now 2016-Jul-27 13:28 UTC.
Position N 48°38' W 002°02'.

Length 151 m; beam 27 m.

Type: Ship. MMSI: 227286000.

Date/timePositionNaut miles runAvg speedWind from/ knotsBaromVisibWave heightAir tempDewpointWater temp
2016-Jul-27 07:21N 48°38' W 002°02'2110.8
2016-Jul-27 05:23N 48°55' W 002°22'1213.4
2016-Jul-27 04:30N 49°07' W 002°23'8812.7
2016-Jul-26 21:33N 50°25' W 001°18'1514.6
2016-Jul-26 20:33N 50°36' W 001°04'1010.4
2016-Jul-26 19:33N 50°47' W 001°06'2 2.1
2016-Jul-26 18:33N 50°49' W 001°06'0 0.0
2016-Jul-26 17:34N 50°49' W 001°06'5 5.2
2016-Jul-26 16:34N 50°44' W 001°03'5416.1
2016-Jul-26 13:13N 49°57' W 001°47'5619.7
2016-Jul-26 10:24N 49°02' W 001°52'1619.4
2016-Jul-26 09:33N 48°46' W 001°60'8 3.6
2016-Jul-26 07:19N 48°38' W 002°02'2 2.5
2016-Jul-26 06:27N 48°40' W 002°04'1616.6
2016-Jul-26 05:30N 48°52' W 002°18'1412.5
2016-Jul-26 04:25N 49°06' W 002°22'1112.0
2016-Jul-26 03:28N 49°17' W 002°21'5713.2
2016-Jul-25 23:09N 50°06' W 001°36'1313.4
2016-Jul-25 22:11N 50°16' W 001°23'914.4
2016-Jul-25 21:33N 50°25' W 001°19'1515.2
2016-Jul-25 20:33N 50°37' W 001°07'1010.2
2016-Jul-25 19:33N 50°48' W 001°07'1 1.2
2016-Jul-25 18:32N 50°49' W 001°06'0 0.0
2016-Jul-25 17:32N 50°49' W 001°06'3 2.6
2016-Jul-25 16:33N 50°46' W 001°05'1212.3
2016-Jul-25 15:34N 50°34' W 001°10'1212.4
2016-Jul-25 14:33N 50°24' W 001°21'1514.5
2016-Jul-25 13:33N 50°12' W 001°35'1817.7
2016-Jul-25 12:33N 49°57' W 001°49'35 2.3
2016-Jul-24 21:30N 50°26' W 001°19'1313.4
2016-Jul-24 20:33N 50°36' W 001°08'1010.0
2016-Jul-24 19:33N 50°46' W 001°05'2 2.4
2016-Jul-24 18:31N 50°49' W 001°06'0 0.0
2016-Jul-24 17:31N 50°49' W 001°06'2 2.3
2016-Jul-24 16:34N 50°47' W 001°06'1211.9
2016-Jul-24 15:33N 50°35' W 001°09'4815.8
2016-Jul-24 12:31N 49°56' W 001°53'4719.5
2016-Jul-24 10:06N 49°09' W 001°53'1218.2
2016-Jul-24 09:28N 48°57' W 001°56'1918.4
2016-Jul-24 08:27N 48°39' W 002°03'1 0.5
2016-Jul-24 06:26N 48°38' W 002°02'5 5.5
2016-Jul-24 05:34N 48°42' W 002°06'1919.0
2016-Jul-24 04:33N 48°58' W 002°22'1413.4
2016-Jul-24 03:32N 49°12' W 002°22'2215.4
2016-Jul-24 02:05N 49°33' W 002°11'2515.9
2016-Jul-24 00:31N 49°55' W 001°53'3113.0
2016-Jul-23 22:08N 50°19' W 001°23'813.7
2016-Jul-23 21:33N 50°27' W 001°18'1212.4
2016-Jul-23 20:33N 50°37' W 001°07'1010.1
2016-Jul-23 19:33N 50°47' W 001°06'2 1.8
2016-Jul-23 18:32N 50°49' W 001°06'0 0.0
2016-Jul-23 17:32N 50°49' W 001°06'2 2.5
2016-Jul-23 16:33N 50°46' W 001°05'1313.0
2016-Jul-23 15:33N 50°34' W 001°10'1313.3
2016-Jul-23 14:33N 50°24' W 001°24'3215.9
2016-Jul-23 12:33N 49°56' W 001°49'2619.2
2016-Jul-23 11:12N 49°31' W 001°59'1320.6
2016-Jul-23 10:33N 49°18' W 001°54'3818.4
2016-Jul-23 08:28N 48°40' W 002°02'39 7.3
2016-Jul-23 03:07N 49°17' W 002°21'1118.1
2016-Jul-23 02:33N 49°27' W 002°14'2218.7
2016-Jul-23 01:21N 49°47' W 002°00'1315.8
2016-Jul-23 00:33N 49°58' W 001°49'1414.1
2016-Jul-22 23:33N 50°08' W 001°36'1413.7
2016-Jul-22 22:33N 50°19' W 001°23'1313.0
2016-Jul-22 21:33N 50°30' W 001°11'1212.1
2016-Jul-22 20:33N 50°39' W 000°58'1110.7
2016-Jul-22 19:33N 50°49' W 001°06'0 0.3
2016-Jul-22 18:32N 50°49' W 001°06'0 0.0
2016-Jul-22 17:32N 50°49' W 001°06'5 5.5
2016-Jul-22 16:33N 50°44' W 001°03'1313.1
2016-Jul-22 15:34N 50°32' W 001°12'1414.1
2016-Jul-22 14:33N 50°22' W 001°28'1515.3
2016-Jul-22 13:34N 50°08' W 001°39'1717.4
2016-Jul-22 12:33N 49°53' W 001°51'2018.5
2016-Jul-22 11:30N 49°35' W 002°03'1819.8
2016-Jul-22 10:34N 49°16' W 002°04'2217.0
2016-Jul-22 09:16N 48°54' W 001°58'1518.6
2016-Jul-22 08:27N 48°40' W 002°02'24 5.8
2016-Jul-22 04:22N 48°60' W 002°22'1113.4
2016-Jul-22 03:32N 49°11' W 002°22'1313.7
2016-Jul-22 02:33N 49°24' W 002°17'1614.5
2016-Jul-22 01:27N 49°39' W 002°08'1516.6
2016-Jul-22 00:32N 49°52' W 001°56'1515.6
2016-Jul-21 23:33N 50°04' W 001°43'1414.3
2016-Jul-21 22:34N 50°16' W 001°31'1413.5
2016-Jul-21 21:33N 50°27' W 001°18'1312.7
2016-Jul-21 20:33N 50°38' W 001°06'1010.5
2016-Jul-21 19:33N 50°48' W 001°07'1 1.0
2016-Jul-21 18:31N 50°49' W 001°06'0 0.0
2016-Jul-21 17:31N 50°49' W 001°06'6 6.6
2016-Jul-21 16:34N 50°43' W 001°03'1515.2
2016-Jul-21 15:33N 50°30' W 001°16'1716.5
2016-Jul-21 14:33N 50°17' W 001°32'1716.8
2016-Jul-21 13:33N 50°02' W 001°45'66 7.3
2016-Jul-21 04:25N 49°00' W 002°22'5614.5
2016-Jul-21 00:33N 49°54' W 001°57'1616.2
2016-Jul-20 23:33N 50°06' W 001°41'1515.0
2016-Jul-20 22:33N 50°19' W 001°27'1413.9
2016-Jul-20 21:34N 50°30' W 001°14'1312.6
2016-Jul-20 20:34N 50°40' W 001°04'8 8.4
2016-Jul-20 19:33N 50°49' W 001°06'0 0.0
2016-Jul-20 18:32N 50°49' W 001°06'0 0.0
2016-Jul-20 17:31N 50°49' W 001°06'6 6.2
2016-Jul-20 16:34N 50°43' W 001°03'1515.2
2016-Jul-20 15:34N 50°30' W 001°15'1917.3
2016-Jul-20 14:26N 50°14' W 001°32'1616.8
2016-Jul-20 13:30N 50°01' W 001°45'3316.2
2016-Jul-20 11:29N 49°32' W 002°11'51 8.6
2016-Jul-20 05:33N 48°42' W 002°06'2218.0
2016-Jul-20 04:21N 49°00' W 002°22'1012.5
2016-Jul-20 03:30N 49°11' W 002°24'2411.6
2016-Jul-20 01:24N 49°33' W 002°10'1314.9
2016-Jul-20 00:32N 49°46' W 002°03'1717.1
2016-Jul-19 23:33N 49°59' W 001°48'1616.0
2016-Jul-19 22:33N 50°12' W 001°34'1515.1
2016-Jul-19 21:33N 50°25' W 001°20'1413.9
2016-Jul-19 20:33N 50°36' W 001°08'1111.5
2016-Jul-19 19:33N 50°48' W 001°07'1 1.3
2016-Jul-19 18:33N 50°49' W 001°06'0 0.0
2016-Jul-19 17:33N 50°49' W 001°06'9 8.8
2016-Jul-19 16:34N 50°40' W 001°04'5217.0
2016-Jul-19 13:29N 49°56' W 001°50'1515.5
2016-Jul-19 12:32N 49°44' W 002°02'1515.1
2016-Jul-19 11:33N 49°31' W 002°12'1818.1
2016-Jul-19 10:33N 49°14' W 002°22'2019.5
2016-Jul-19 09:33N 48°54' W 002°20'6 1.1
2016-Jul-19 04:31N 48°60' W 002°23'1313.1
2016-Jul-19 03:31N 49°13' W 002°23'1111.8
2016-Jul-19 02:33N 49°23' W 002°17'2713.3
2016-Jul-19 00:33N 49°48' W 002°01'1616.0
2016-Jul-18 23:33N 50°01' W 001°47'1615.6
2016-Jul-18 22:33N 50°13' W 001°31'1514.8
2016-Jul-18 21:33N 50°26' W 001°19'1413.8
2016-Jul-18 20:33N 50°37' W 001°07'1111.2
2016-Jul-18 19:33N 50°48' W 001°07'1 0.9
2016-Jul-18 18:30N 50°49' W 001°06'0 0.0
2016-Jul-18 17:33N 50°49' W 001°06'9 8.9
2016-Jul-18 16:33N 50°41' W 000°58'1919.1
2016-Jul-18 15:33N 50°28' W 001°20'1918.4
2016-Jul-18 14:33N 50°15' W 001°40'1817.9
2016-Jul-18 13:33N 49°58' W 001°50'5016.4
2016-Jul-18 10:29N 49°12' W 002°22'14 2.3
2016-Jul-18 04:32N 48°59' W 002°22'1312.9
2016-Jul-18 03:33N 49°11' W 002°22'1211.7
2016-Jul-18 02:34N 49°23' W 002°17'1813.2
2016-Jul-18 01:10N 49°39' W 002°05'915.1
2016-Jul-18 00:33N 49°48' W 001°59'1514.5
2016-Jul-17 23:33N 49°59' W 001°46'1816.0
2016-Jul-17 22:26N 50°15' W 001°33'1515.4
2016-Jul-17 21:28N 50°27' W 001°18'1314.4
2016-Jul-17 20:33N 50°38' W 001°06'1111.0
2016-Jul-17 19:33N 50°49' W 001°06'0 0.4
2016-Jul-17 18:32N 50°49' W 001°06'0 0.0
2016-Jul-17 17:32N 50°49' W 001°06'3 3.3
2016-Jul-17 16:34N 50°45' W 001°05'1616.5
2016-Jul-17 15:34N 50°30' W 001°15'2018.7
2016-Jul-17 14:29N 50°14' W 001°34'1717.6
2016-Jul-17 13:33N 50°02' W 001°51'7016.8
2016-Jul-17 09:24N 48°55' W 002°21'  
Track history (hours):
 
Tides and Currents Weather Stations Pressure Air Temp Water Temp Dewpoint Dewpoint Depression Visibility Wind Speed Wind Dir Waves Ship Positions

Bretagne

Operator: Brittany Ferries

Last reported at 2016-Jul-27 07:21 UTC. Time now 2016-Jul-27 13:28 UTC.
Position N 48°38' W 002°02'.

Length 151 m; beam 27 m.

Type: Ship. MMSI: 227286000.

Date/timePositionNaut miles runAvg speedWind from/ knotsBaromVisibWave heightAir tempDewpointWater temp
2016-Jul-27 07:21N 48°38' W 002°02'2110.8
2016-Jul-27 05:23N 48°55' W 002°22'1213.4
2016-Jul-27 04:30N 49°07' W 002°23'8812.7
2016-Jul-26 21:33N 50°25' W 001°18'1514.6
2016-Jul-26 20:33N 50°36' W 001°04'1010.4
2016-Jul-26 19:33N 50°47' W 001°06'2 2.1
2016-Jul-26 18:33N 50°49' W 001°06'0 0.0
2016-Jul-26 17:34N 50°49' W 001°06'5 5.2
2016-Jul-26 16:34N 50°44' W 001°03'5416.1
2016-Jul-26 13:13N 49°57' W 001°47'5619.7
2016-Jul-26 10:24N 49°02' W 001°52'1619.4
2016-Jul-26 09:33N 48°46' W 001°60'8 3.6
2016-Jul-26 07:19N 48°38' W 002°02'2 2.5
2016-Jul-26 06:27N 48°40' W 002°04'1616.6
2016-Jul-26 05:30N 48°52' W 002°18'1412.5
2016-Jul-26 04:25N 49°06' W 002°22'1112.0
2016-Jul-26 03:28N 49°17' W 002°21'5713.2
2016-Jul-25 23:09N 50°06' W 001°36'1313.4
2016-Jul-25 22:11N 50°16' W 001°23'914.4
2016-Jul-25 21:33N 50°25' W 001°19'1515.2
2016-Jul-25 20:33N 50°37' W 001°07'1010.2
2016-Jul-25 19:33N 50°48' W 001°07'1 1.2
2016-Jul-25 18:32N 50°49' W 001°06'0 0.0
2016-Jul-25 17:32N 50°49' W 001°06'3 2.6
2016-Jul-25 16:33N 50°46' W 001°05'1212.3
2016-Jul-25 15:34N 50°34' W 001°10'1212.4
2016-Jul-25 14:33N 50°24' W 001°21'1514.5
2016-Jul-25 13:33N 50°12' W 001°35'1817.7
2016-Jul-25 12:33N 49°57' W 001°49'35 2.3
2016-Jul-24 21:30N 50°26' W 001°19'1313.4
2016-Jul-24 20:33N 50°36' W 001°08'1010.0
2016-Jul-24 19:33N 50°46' W 001°05'2 2.4
2016-Jul-24 18:31N 50°49' W 001°06'0 0.0
2016-Jul-24 17:31N 50°49' W 001°06'2 2.3
2016-Jul-24 16:34N 50°47' W 001°06'1211.9
2016-Jul-24 15:33N 50°35' W 001°09'4815.8
2016-Jul-24 12:31N 49°56' W 001°53'4719.5
2016-Jul-24 10:06N 49°09' W 001°53'1218.2
2016-Jul-24 09:28N 48°57' W 001°56'1918.4
2016-Jul-24 08:27N 48°39' W 002°03'1 0.5
2016-Jul-24 06:26N 48°38' W 002°02'5 5.5
2016-Jul-24 05:34N 48°42' W 002°06'1919.0
2016-Jul-24 04:33N 48°58' W 002°22'1413.4
2016-Jul-24 03:32N 49°12' W 002°22'2215.4
2016-Jul-24 02:05N 49°33' W 002°11'2515.9
2016-Jul-24 00:31N 49°55' W 001°53'3113.0
2016-Jul-23 22:08N 50°19' W 001°23'813.7
2016-Jul-23 21:33N 50°27' W 001°18'1212.4
2016-Jul-23 20:33N 50°37' W 001°07'1010.1
2016-Jul-23 19:33N 50°47' W 001°06'2 1.8
2016-Jul-23 18:32N 50°49' W 001°06'0 0.0
2016-Jul-23 17:32N 50°49' W 001°06'2 2.5
2016-Jul-23 16:33N 50°46' W 001°05'1313.0
2016-Jul-23 15:33N 50°34' W 001°10'1313.3
2016-Jul-23 14:33N 50°24' W 001°24'3215.9
2016-Jul-23 12:33N 49°56' W 001°49'2619.2
2016-Jul-23 11:12N 49°31' W 001°59'1320.6
2016-Jul-23 10:33N 49°18' W 001°54'3818.4
2016-Jul-23 08:28N 48°40' W 002°02'39 7.3
2016-Jul-23 03:07N 49°17' W 002°21'1118.1
2016-Jul-23 02:33N 49°27' W 002°14'2218.7
2016-Jul-23 01:21N 49°47' W 002°00'1315.8
2016-Jul-23 00:33N 49°58' W 001°49'1414.1
2016-Jul-22 23:33N 50°08' W 001°36'1413.7
2016-Jul-22 22:33N 50°19' W 001°23'1313.0
2016-Jul-22 21:33N 50°30' W 001°11'1212.1
2016-Jul-22 20:33N 50°39' W 000°58'1110.7
2016-Jul-22 19:33N 50°49' W 001°06'0 0.3
2016-Jul-22 18:32N 50°49' W 001°06'0 0.0
2016-Jul-22 17:32N 50°49' W 001°06'5 5.5
2016-Jul-22 16:33N 50°44' W 001°03'1313.1
2016-Jul-22 15:34N 50°32' W 001°12'1414.1
2016-Jul-22 14:33N 50°22' W 001°28'1515.3
2016-Jul-22 13:34N 50°08' W 001°39'1717.4
2016-Jul-22 12:33N 49°53' W 001°51'2018.5
2016-Jul-22 11:30N 49°35' W 002°03'1819.8
2016-Jul-22 10:34N 49°16' W 002°04'2217.0
2016-Jul-22 09:16N 48°54' W 001°58'1518.6
2016-Jul-22 08:27N 48°40' W 002°02'24 5.8
2016-Jul-22 04:22N 48°60' W 002°22'1113.4
2016-Jul-22 03:32N 49°11' W 002°22'1313.7
2016-Jul-22 02:33N 49°24' W 002°17'1614.5
2016-Jul-22 01:27N 49°39' W 002°08'1516.6
2016-Jul-22 00:32N 49°52' W 001°56'1515.6
2016-Jul-21 23:33N 50°04' W 001°43'1414.3
2016-Jul-21 22:34N 50°16' W 001°31'1413.5
2016-Jul-21 21:33N 50°27' W 001°18'1312.7
2016-Jul-21 20:33N 50°38' W 001°06'1010.5
2016-Jul-21 19:33N 50°48' W 001°07'1 1.0
2016-Jul-21 18:31N 50°49' W 001°06'0 0.0
2016-Jul-21 17:31N 50°49' W 001°06'6 6.6
2016-Jul-21 16:34N 50°43' W 001°03'1515.2
2016-Jul-21 15:33N 50°30' W 001°16'1716.5
2016-Jul-21 14:33N 50°17' W 001°32'1716.8
2016-Jul-21 13:33N 50°02' W 001°45'66 7.3
2016-Jul-21 04:25N 49°00' W 002°22'5614.5
2016-Jul-21 00:33N 49°54' W 001°57'1616.2
2016-Jul-20 23:33N 50°06' W 001°41'1515.0
2016-Jul-20 22:33N 50°19' W 001°27'1413.9
2016-Jul-20 21:34N 50°30' W 001°14'1312.6
2016-Jul-20 20:34N 50°40' W 001°04'8 8.4
2016-Jul-20 19:33N 50°49' W 001°06'0 0.0
2016-Jul-20 18:32N 50°49' W 001°06'0 0.0
2016-Jul-20 17:31N 50°49' W 001°06'6 6.2
2016-Jul-20 16:34N 50°43' W 001°03'1515.2
2016-Jul-20 15:34N 50°30' W 001°15'1917.3
2016-Jul-20 14:26N 50°14' W 001°32'1616.8
2016-Jul-20 13:30N 50°01' W 001°45'3316.2
2016-Jul-20 11:29N 49°32' W 002°11'51 8.6
2016-Jul-20 05:33N 48°42' W 002°06'2218.0
2016-Jul-20 04:21N 49°00' W 002°22'1012.5
2016-Jul-20 03:30N 49°11' W 002°24'2411.6
2016-Jul-20 01:24N 49°33' W 002°10'1314.9
2016-Jul-20 00:32N 49°46' W 002°03'1717.1
2016-Jul-19 23:33N 49°59' W 001°48'1616.0
2016-Jul-19 22:33N 50°12' W 001°34'1515.1
2016-Jul-19 21:33N 50°25' W 001°20'1413.9
2016-Jul-19 20:33N 50°36' W 001°08'1111.5
2016-Jul-19 19:33N 50°48' W 001°07'1 1.3
2016-Jul-19 18:33N 50°49' W 001°06'0 0.0
2016-Jul-19 17:33N 50°49' W 001°06'9 8.8
2016-Jul-19 16:34N 50°40' W 001°04'5217.0
2016-Jul-19 13:29N 49°56' W 001°50'1515.5
2016-Jul-19 12:32N 49°44' W 002°02'1515.1
2016-Jul-19 11:33N 49°31' W 002°12'1818.1
2016-Jul-19 10:33N 49°14' W 002°22'2019.5
2016-Jul-19 09:33N 48°54' W 002°20'6 1.1
2016-Jul-19 04:31N 48°60' W 002°23'1313.1
2016-Jul-19 03:31N 49°13' W 002°23'1111.8
2016-Jul-19 02:33N 49°23' W 002°17'2713.3
2016-Jul-19 00:33N 49°48' W 002°01'1616.0
2016-Jul-18 23:33N 50°01' W 001°47'1615.6
2016-Jul-18 22:33N 50°13' W 001°31'1514.8
2016-Jul-18 21:33N 50°26' W 001°19'1413.8
2016-Jul-18 20:33N 50°37' W 001°07'1111.2
2016-Jul-18 19:33N 50°48' W 001°07'1 0.9
2016-Jul-18 18:30N 50°49' W 001°06'0 0.0
2016-Jul-18 17:33N 50°49' W 001°06'9 8.9
2016-Jul-18 16:33N 50°41' W 000°58'1919.1
2016-Jul-18 15:33N 50°28' W 001°20'1918.4
2016-Jul-18 14:33N 50°15' W 001°40'1817.9
2016-Jul-18 13:33N 49°58' W 001°50'5016.4
2016-Jul-18 10:29N 49°12' W 002°22'14 2.3
2016-Jul-18 04:32N 48°59' W 002°22'1312.9
2016-Jul-18 03:33N 49°11' W 002°22'1211.7
2016-Jul-18 02:34N 49°23' W 002°17'1813.2
2016-Jul-18 01:10N 49°39' W 002°05'915.1
2016-Jul-18 00:33N 49°48' W 001°59'1514.5
2016-Jul-17 23:33N 49°59' W 001°46'1816.0
2016-Jul-17 22:26N 50°15' W 001°33'1515.4
2016-Jul-17 21:28N 50°27' W 001°18'1314.4
2016-Jul-17 20:33N 50°38' W 001°06'1111.0
2016-Jul-17 19:33N 50°49' W 001°06'0 0.4
2016-Jul-17 18:32N 50°49' W 001°06'0 0.0
2016-Jul-17 17:32N 50°49' W 001°06'3 3.3
2016-Jul-17 16:34N 50°45' W 001°05'1616.5
2016-Jul-17 15:34N 50°30' W 001°15'2018.7
2016-Jul-17 14:29N 50°14' W 001°34'1717.6
2016-Jul-17 13:33N 50°02' W 001°51'7016.8
2016-Jul-17 09:24N 48°55' W 002°21'  

Dump ship's entire track history